Delray Beach, FL

7:47 AM EDT on May 05, 2015 (GMT -0400)
Delray Beach | | Change Station
CLOSE
Current Station
Personal Weather Station
Location: Delray Beach, FL
Elevation: 30 ft
Nearby Weather Stations

Elev 30 ft 26.47 °N, 80.09 °W | Updated 12 seconds ago

Rain
Rain
71.6 °F
Feels Like 71.6 °F
N
5.3
Wind Variable Wind from South
Gusts 5.3 mph

Today
High -- | Low -- °F
--% Chance of Precip.
Yesterday
High -- | Low -- °F
Precip. -- in
6:39 AM 7:54 PM
Full, 98% visible
Pressure 30.07 in
Visibility 5.0 miles
Clouds Mostly Cloudy 1500 ft
Mostly Cloudy 2100 ft
Overcast 11000 ft
Dew Point 69 °F
Humidity 92%
Rainfall 0.22 in
Snow Depth Not available.
UV 0 out of 12
Pollen .60 out of 12
Air Quality Not available.
Flu Activity Local Activity
SPECI KPMP 051137Z 07015G20KT 5SM -RA BR BKN015 BKN021 OVC110 23/22 A3007 RMK AO2 LTG DSNT SE P0001 T02280217

More Conditions Fewer Conditions

Pressure 30.07 in
Visibility 5.0 miles
Clouds Mostly Cloudy 1500 ft
Mostly Cloudy 2100 ft
Overcast 11000 ft
Dew Point 69 °F
Humidity 92%
Rainfall 0.22 in
Snow Depth Not available.
UV 0 out of 12
Pollen .60 out of 12
Air Quality Not available.
Flu Activity Local Activity
SPECI KPMP 051137Z 07015G20KT 5SM -RA BR BKN015 BKN021 OVC110 23/22 A3007 RMK AO2 LTG DSNT SE P0001 T02280217

More Conditions Fewer Conditions

Nepal has a long way to go to dig out and rebuild from a devastating earthquake. We have teamed up with several charities and organizations to make contributing to the relief effort as easy as possible.
How you can help: Portlight Strategies | Red Cross
Nowcast | as of 5:47 am EDT on May 5, 2015

Scattered showers and thunderstorms will continue to move west at 10 mph across the Atlantic waters and then onshore of the southeast coast. The showers affecting the Mainland will mainly be over extreme northern Miami-Dade, eastern Broward and eastern Palm Beach counties. The strongest storms will contain an occasional lightning strike along with brief heavy downpours with heaviest rainfall totals of around an inch. Mariners over the Atlantic waters may experience gusty winds of around 25 knots with the stronger activity with locally rough seas.

×

10-Day Weather Forecast

Almanac

Astronomy

May. 05, 2015 Rise Set
Actual Time
Civil Twilight
Nautical Twilight
Astronomical Twilight
Moon
Length of Visible Light
Length of Day
Tomorrow will be .
, % of the Moon is Illuminated

Today's Extremes

State Highs State Lows

Community

WunderPhotos

Upload Photos

1,818,849 photos uploaded!

WunderBlogs® & News

Nearby

Air Quality

  Air Quality AQ Index Pollutant
Not available.

Snow Depth

Station Depth Elevation

Earthquake Activity

City Distance Mag. Time & Date
Minimum magnitude displayed is 2.5.

Coastal Water Temperatures

Place Temperature

Stations

Nearby Weather Stations

Station Location Temp. Windchill Dew Point Humidity Wind Precip. Elev Updated Type